»·PEaware :: N65415 KAWO-KAWO

N65415 :: KAWO-KAWO

FLIGHT INFORMATION

Flight Status: Arrived
Operator: Privately registered:
United States
More flights under this callsign
Pilot: Stephane C. (508)
Aircraft: CESSNA 172 SKYHAWK
(C172)
More flights by this aircraft type
Origin: KAWO Arlington Mun
United States
Destination: KAWO Arlington Mun
United States
More flights between these airports :: More routes between these airports
Route:
File this flight plan on PilotEdge
Remarks:
Altitude:
(Current/Filed)
1,000ft
Speed:
(Current/Filed)
100kts
Departed: 17-Jul-18 09:12 AM
Arrived: 17-Jul-18 09:57 AM
Distance/Time
Traveled:
0nm/0:45
Distance/Time
To Go:
Arrived

Flight Plot

Page will automatically refresh every two minutes.

Flight plan parsing failed; only flown route is shown


Map Options




Map Legend


Flown Route
Filed Route
Departure Airport
Arrival Airport
Navaid (VOR, NDB)
Fix

Horizontal Profiles

Position Reports

Time Latitude Longitude Heading Altitude Ground
Speed
17-Jul-18 08:58 48.161154 -122.153336 268 136ft 0kts
17-Jul-18 08:59 48.161154 -122.153336 268 136ft 0kts
17-Jul-18 09:00 48.161154 -122.153336 268 136ft 0kts
17-Jul-18 09:01 48.161154 -122.153336 268 136ft 0kts
17-Jul-18 09:02 48.161154 -122.153336 268 136ft 0kts
17-Jul-18 09:03 48.161154 -122.153336 268 136ft 0kts
17-Jul-18 09:04 48.161154 -122.153336 268 136ft 0kts
17-Jul-18 09:05 48.161154 -122.153336 268 136ft 0kts
17-Jul-18 09:06 48.161154 -122.153365 268 136ft 1kts
17-Jul-18 09:07 48.159505 -122.153481 179 135ft 9kts
17-Jul-18 09:08 48.158482 -122.153459 183 133ft 6kts
17-Jul-18 09:09 48.156413 -122.154177 178 131ft 12kts
17-Jul-18 09:10 48.155205 -122.154667 1 130ft 0kts
17-Jul-18 09:11 48.155549 -122.155018 290 130ft 0kts
17-Jul-18 09:12 48.156941 -122.156242 358 131ft 8kts
17-Jul-18 09:13 48.169103 -122.156389 359 382ft 75kts
17-Jul-18 09:14 48.183335 -122.171322 266 1165ft 79kts
17-Jul-18 09:15 48.160885 -122.182655 183 1266ft 109kts
17-Jul-18 09:16 48.135182 -122.182890 139 841ft 80kts
17-Jul-18 09:17 48.138435 -122.156186 10 496ft 73kts
17-Jul-18 09:18 48.157094 -122.156243 358 132ft 50kts
17-Jul-18 09:19 48.176337 -122.156580 358 659ft 81kts
17-Jul-18 09:20 48.181901 -122.184112 210 1271ft 92kts
17-Jul-18 09:21 48.155231 -122.187876 182 1296ft 88kts
17-Jul-18 09:22 48.134209 -122.183604 104 842ft 76kts
17-Jul-18 09:23 48.136903 -122.156836 21 498ft 69kts
17-Jul-18 09:24 48.154988 -122.156194 359 147ft 57kts
17-Jul-18 09:25 48.171945 -122.156735 357 585ft 71kts
17-Jul-18 09:26 48.181216 -122.177935 225 1240ft 83kts
17-Jul-18 09:27 48.155443 -122.182418 183 1158ft 94kts
17-Jul-18 09:28 48.134374 -122.180173 105 688ft 72kts
17-Jul-18 09:29 48.137999 -122.155644 356 439ft 71kts
17-Jul-18 09:30 48.157004 -122.156242 359 132ft 49kts
17-Jul-18 09:31 48.174304 -122.156138 4 649ft 72kts
17-Jul-18 09:32 48.179753 -122.178932 207 1214ft 86kts
17-Jul-18 09:33 48.154979 -122.182243 184 1200ft 85kts
17-Jul-18 09:34 48.135479 -122.178185 104 772ft 73kts
17-Jul-18 09:35 48.141357 -122.155845 359 450ft 70kts
17-Jul-18 09:36 48.158475 -122.156275 359 133ft 45kts
17-Jul-18 09:37 48.177478 -122.157468 335 772ft 75kts
17-Jul-18 09:38 48.180325 -122.187296 209 1266ft 92kts
17-Jul-18 09:39 48.154878 -122.189809 181 1179ft 85kts
17-Jul-18 09:40 48.134661 -122.183568 101 703ft 75kts
17-Jul-18 09:41 48.136034 -122.156052 14 416ft 65kts
17-Jul-18 09:42 48.154660 -122.156184 359 158ft 60kts
17-Jul-18 09:43 48.171839 -122.156561 358 470ft 74kts
17-Jul-18 09:44 48.184114 -122.176331 269 1247ft 81kts
17-Jul-18 09:45 48.162383 -122.186950 180 1251ft 91kts
17-Jul-18 09:46 48.139155 -122.185390 130 876ft 80kts
17-Jul-18 09:47 48.138946 -122.156699 27 480ft 67kts
17-Jul-18 09:48 48.157175 -122.156242 359 132ft 47kts
17-Jul-18 09:49 48.173703 -122.156855 356 600ft 73kts
17-Jul-18 09:50 48.183969 -122.181879 272 1296ft 87kts
17-Jul-18 09:51 48.196455 -122.211751 311 2015ft 88kts
17-Jul-18 09:52 48.215451 -122.213325 103 2076ft 118kts
17-Jul-18 09:53 48.205822 -122.167669 102 1756ft 116kts
17-Jul-18 09:54 48.196367 -122.127324 112 1302ft 87kts
17-Jul-18 09:55 48.194113 -122.095590 19 761ft 72kts
17-Jul-18 09:56 48.203548 -122.113299 283 568ft 76kts
17-Jul-18 09:57 48.204205 -122.141043 271 50ft 50kts
17-Jul-18 09:58 48.204208 -122.142289 91 50ft 21kts
17-Jul-18 09:59 48.203990 -122.139936 177 50ft 0kts
17-Jul-18 10:00 48.204187 -122.139350 273 50ft 0kts
17-Jul-18 10:01 48.204187 -122.139350 273 50ft 0kts
17-Jul-18 10:02 48.204126 -122.155478 267 360ft 68kts
17-Jul-18 10:05 48.196603 -122.244735 133 1696ft 118kts
17-Jul-18 10:06 48.180977 -122.203359 116 1263ft 106kts
17-Jul-18 10:07 48.160872 -122.187073 182 1159ft 88kts
17-Jul-18 10:08 48.138972 -122.186324 124 880ft 74kts
17-Jul-18 10:09 48.139460 -122.157997 31 544ft 69kts
17-Jul-18 10:10 48.157149 -122.156247 0 132ft 46kts
17-Jul-18 10:11 48.159793 -122.154260 11 135ft 4kts
17-Jul-18 10:12 48.160134 -122.152957 178 135ft 5kts

Navigation Log

Ident Type
Flight plan parsing failed, navigation log unavailable